Pagina principale
METAR-TAF:

METAR-TAF

Aeroporti :

Dübendorf, Svizzera

latitudine: 47-23-55N, longitudine: 8-38-53E, altezza: 448 m

Osservazione

Il bollettino è stato emesso 29 minuti fa, alle 13:50 UTC
Vento 10 kt da ovest/sud-ovest, variando fra sud/sud-ovest e nord-ovest
Temperature 12°C
Umidità 67%
Pressione 1005 hPa
Visibilità 10 km o più
Nuvoloso ad un'altezza di 3400 ft
Nuvoloso ad un'altezza di 7900 ft
rovesci di pioggia

METAR: LSMD 271350Z 25010KT 210V320 9999 -SHRA BKN034 BKN079 12/06 Q1005 RMK BLU

Ora: 16:19 (14:19 UTC)


TAF: mancante

Osservazioni e previsioni meteorologiche di più di 4000 aeroporti (messaggi METAR e TAF).

Le stazioni disponibili sono rappresentate dai dischi gialli e rossi sulla carta.

Puntare il mouse per vedere il nome della stazione.

Clicca sopra per visualizzare le osservazioni e previsioni meteorologiche.

Per cambiare la mappa : fare clic sui pulsanti verdi con una croce nera per ingrandire, il pulsante verde con un trattino per diminuire, o sulla freccia verde per le mappe adiacenti.


METAR-TAF: